Time,TemperatureF,DewpointF,PressureIn,WindDirection,WindDirectionDegrees,WindSpeedMPH,WindSpeedGustMPH,Humidity,HourlyPrecipIn,Conditions,Clouds,dailyrainin,SoftwareType,DateUTC
2013-01-13 00:03:00,19.0,14.0,30.06,NNW,344,0.0,14.0,79,-99.99,,,-99.99,,2013-01-13 06:03:00,
2013-01-13 00:12:00,19.0,14.0,30.06,NNW,344,0.0,14.0,79,-99.99,,,-99.99,,2013-01-13 06:12:00,
2013-01-13 00:22:00,18.0,13.0,30.05,NNW,345,0.0,17.0,79,-99.99,,,-99.99,,2013-01-13 06:22:00,
2013-01-13 00:32:00,17.0,12.0,30.05,NNW,338,0.0,16.0,79,-99.99,,,-99.99,,2013-01-13 06:32:00,
2013-01-13 00:42:00,17.0,12.0,30.05,NNW,338,0.0,16.0,79,-99.99,,,-99.99,,2013-01-13 06:42:00,
2013-01-13 00:52:00,17.0,12.0,30.05,NNW,338,0.0,16.0,79,-99.99,,,-99.99,,2013-01-13 06:52:00,
2013-01-13 01:02:00,17.0,12.0,30.05,NNW,338,0.0,16.0,79,-99.99,,,-99.99,,2013-01-13 07:02:00,
2013-01-13 01:12:00,17.0,12.0,30.05,NNW,338,0.0,16.0,79,-99.99,,,-99.99,,2013-01-13 07:12:00,
2013-01-13 01:22:00,16.0,11.0,30.02,NNW,344,0.0,15.0,80,-99.99,,,-99.99,,2013-01-13 07:22:00,
2013-01-13 01:32:00,16.0,11.0,30.02,NNW,344,0.0,15.0,80,-99.99,,,-99.99,,2013-01-13 07:32:00,
2013-01-13 01:42:00,16.0,11.0,30.02,NNW,344,0.0,15.0,80,-99.99,,,-99.99,,2013-01-13 07:42:00,
2013-01-13 01:52:00,15.0,11.0,30.04,NNW,337,0.0,10.0,82,-99.99,,,-99.99,,2013-01-13 07:52:00,
2013-01-13 02:02:00,15.0,11.0,30.04,WNW,290,0.0,16.0,83,-99.99,,,-99.99,,2013-01-13 08:02:00,
2013-01-13 02:12:00,15.0,11.0,30.04,WNW,290,0.0,16.0,83,-99.99,,,-99.99,,2013-01-13 08:12:00,
2013-01-13 02:22:00,15.0,11.0,30.04,WNW,290,0.0,16.0,83,-99.99,,,-99.99,,2013-01-13 08:22:00,
2013-01-13 02:32:00,15.0,11.0,30.07,NNW,338,0.0,12.0,83,-99.99,,,-99.99,,2013-01-13 08:32:00,
2013-01-13 02:42:00,15.0,11.0,30.07,NNW,338,0.0,12.0,83,-99.99,,,-99.99,,2013-01-13 08:42:00,
2013-01-13 02:53:00,15.0,11.0,30.06,NW,323,0.0,13.0,84,-99.99,,,-99.99,,2013-01-13 08:53:00,
2013-01-13 03:02:00,15.0,11.0,30.06,NW,323,0.0,13.0,84,-99.99,,,-99.99,,2013-01-13 09:02:00,
2013-01-13 03:12:00,14.0,10.0,30.04,NNW,333,0.0,12.0,84,-99.99,,,-99.99,,2013-01-13 09:12:00,
2013-01-13 03:22:00,14.0,10.0,30.04,NNW,333,0.0,12.0,84,-99.99,,,-99.99,,2013-01-13 09:22:00,
2013-01-13 03:32:00,14.0,10.0,30.05,NW,317,0.0,10.0,85,-99.99,,,-99.99,,2013-01-13 09:32:00,
2013-01-13 03:42:00,14.0,10.0,30.05,NW,317,0.0,10.0,85,-99.99,,,-99.99,,2013-01-13 09:42:00,
2013-01-13 03:52:00,15.0,12.0,30.06,North,358,0.0,9.0,86,-99.99,,,-99.99,,2013-01-13 09:52:00,
2013-01-13 04:02:00,15.0,11.0,30.06,North,355,0.0,11.0,85,-99.99,,,-99.99,,2013-01-13 10:02:00,
2013-01-13 04:12:00,15.0,11.0,30.06,North,355,0.0,11.0,85,-99.99,,,-99.99,,2013-01-13 10:12:00,
2013-01-13 04:22:00,15.0,11.0,30.07,NNW,334,0.0,11.0,85,-99.99,,,-99.99,,2013-01-13 10:22:00,
2013-01-13 04:32:00,15.0,11.0,30.07,NNW,334,0.0,11.0,85,-99.99,,,-99.99,,2013-01-13 10:32:00,
2013-01-13 04:42:00,15.0,11.0,30.07,NNW,334,0.0,11.0,85,-99.99,,,-99.99,,2013-01-13 10:42:00,
2013-01-13 04:52:00,14.0,10.0,30.08,North,360,0.0,9.0,84,-99.99,,,-99.99,,2013-01-13 10:52:00,
2013-01-13 05:02:00,14.0,10.0,30.06,NNE,24,0.0,10.0,85,-99.99,,,-99.99,,2013-01-13 11:02:00,
2013-01-13 05:12:00,14.0,10.0,30.06,NNE,24,0.0,10.0,85,-99.99,,,-99.99,,2013-01-13 11:12:00,
2013-01-13 05:22:00,14.0,10.0,30.06,NNW,347,0.0,9.0,85,-99.99,,,-99.99,,2013-01-13 11:22:00,
2013-01-13 05:32:00,14.0,10.0,30.06,NNW,347,0.0,9.0,85,-99.99,,,-99.99,,2013-01-13 11:32:00,
2013-01-13 05:42:00,14.0,10.0,30.06,NNW,347,0.0,9.0,85,-99.99,,,-99.99,,2013-01-13 11:42:00,
2013-01-13 05:52:00,13.0,9.0,30.08,NNW,336,0.0,14.0,85,-99.99,,,-99.99,,2013-01-13 11:52:00,
2013-01-13 06:03:00,13.0,9.0,30.09,NW,326,0.0,11.0,85,-99.99,,,-99.99,,2013-01-13 12:03:00,
2013-01-13 06:12:00,13.0,9.0,30.09,NW,326,0.0,11.0,85,-99.99,,,-99.99,,2013-01-13 12:12:00,
2013-01-13 06:22:00,13.0,9.0,30.09,NW,326,0.0,11.0,85,-99.99,,,-99.99,,2013-01-13 12:22:00,
2013-01-13 06:32:00,13.0,9.0,30.10,North,358,0.0,12.0,85,-99.99,,,-99.99,,2013-01-13 12:32:00,
2013-01-13 06:42:00,13.0,9.0,30.10,North,358,0.0,12.0,85,-99.99,,,-99.99,,2013-01-13 12:42:00,
2013-01-13 06:53:00,13.0,9.0,30.10,NW,319,0.0,11.0,85,-99.99,,,-99.99,,2013-01-13 12:53:00,
2013-01-13 07:02:00,13.0,9.0,30.10,NW,319,0.0,11.0,85,-99.99,,,-99.99,,2013-01-13 13:02:00,
2013-01-13 07:12:00,13.0,9.0,30.10,NW,319,0.0,11.0,85,-99.99,,,-99.99,,2013-01-13 13:12:00,
2013-01-13 07:22:00,12.0,8.0,30.12,North,1,0.0,9.0,85,-99.99,,,-99.99,,2013-01-13 13:22:00,
2013-01-13 07:33:00,12.0,8.0,30.12,North,1,0.0,9.0,85,-99.99,,,-99.99,,2013-01-13 13:33:00,
2013-01-13 07:42:00,12.0,8.0,30.12,North,1,0.0,9.0,85,-99.99,,,-99.99,,2013-01-13 13:42:00,
2013-01-13 07:53:00,11.0,7.0,30.14,WNW,289,0.0,12.0,83,-99.99,,,-99.99,,2013-01-13 13:53:00,
2013-01-13 08:03:00,11.0,7.0,30.14,WNW,289,0.0,12.0,83,-99.99,,,-99.99,,2013-01-13 14:03:00,
2013-01-13 08:12:00,11.0,7.0,30.14,WNW,289,0.0,12.0,83,-99.99,,,-99.99,,2013-01-13 14:12:00,
2013-01-13 08:22:00,11.0,7.0,30.14,WNW,289,0.0,12.0,83,-99.99,,,-99.99,,2013-01-13 14:22:00,
2013-01-13 08:33:00,10.0,6.0,30.15,WNW,299,0.0,15.0,84,-99.99,,,-99.99,,2013-01-13 14:33:00,
2013-01-13 08:43:00,10.0,6.0,30.15,WNW,299,0.0,15.0,84,-99.99,,,-99.99,,2013-01-13 14:43:00,
2013-01-13 08:53:00,10.0,6.0,30.16,WNW,293,0.0,12.0,83,-99.99,,,-99.99,,2013-01-13 14:53:00,
2013-01-13 09:03:00,11.0,7.0,30.17,NW,319,0.0,10.0,83,-99.99,,,-99.99,,2013-01-13 15:03:00,
2013-01-13 09:12:00,11.0,7.0,30.17,NW,319,0.0,10.0,83,-99.99,,,-99.99,,2013-01-13 15:12:00,
2013-01-13 09:22:00,11.0,7.0,30.17,NNW,328,0.0,9.0,84,-99.99,,,-99.99,,2013-01-13 15:22:00,
2013-01-13 09:33:00,15.0,10.0,30.16,North,352,0.0,13.0,79,-99.99,,,-99.99,,2013-01-13 15:33:00,
2013-01-13 09:43:00,15.0,10.0,30.16,North,352,0.0,13.0,79,-99.99,,,-99.99,,2013-01-13 15:43:00,
2013-01-13 09:52:00,13.0,8.0,30.16,NNW,340,0.0,12.0,80,-99.99,,,-99.99,,2013-01-13 15:52:00,
2013-01-13 10:03:00,13.0,9.0,30.16,NNW,348,0.0,11.0,82,-99.99,,,-99.99,,2013-01-13 16:03:00,
2013-01-13 10:12:00,13.0,9.0,30.16,NNW,348,0.0,11.0,82,-99.99,,,-99.99,,2013-01-13 16:12:00,
2013-01-13 10:23:00,13.0,8.0,30.16,North,5,0.0,12.0,81,-99.99,,,-99.99,,2013-01-13 16:23:00,
2013-01-13 10:33:00,14.0,8.0,30.15,North,355,0.0,14.0,78,-99.99,,,-99.99,,2013-01-13 16:33:00,
2013-01-13 10:43:00,14.0,8.0,30.15,North,355,0.0,14.0,78,-99.99,,,-99.99,,2013-01-13 16:43:00,
2013-01-13 10:52:00,16.0,9.0,30.15,North,350,0.0,11.0,72,-99.99,,,-99.99,,2013-01-13 16:52:00,
2013-01-13 11:03:00,19.0,11.0,30.15,West,259,0.0,11.0,69,-99.99,,,-99.99,,2013-01-13 17:03:00,
2013-01-13 11:12:00,19.0,11.0,30.15,West,259,0.0,11.0,69,-99.99,,,-99.99,,2013-01-13 17:12:00,
2013-01-13 11:22:00,18.0,9.0,30.15,NW,316,0.0,12.0,68,-99.99,,,-99.99,,2013-01-13 17:22:00,
2013-01-13 11:33:00,16.0,9.0,30.16,NW,312,0.0,11.0,72,-99.99,,,-99.99,,2013-01-13 17:33:00,
2013-01-13 11:42:00,16.0,9.0,30.16,NW,312,0.0,11.0,72,-99.99,,,-99.99,,2013-01-13 17:42:00,
2013-01-13 11:53:00,15.0,9.0,30.16,North,360,0.0,9.0,75,-99.99,,,-99.99,,2013-01-13 17:53:00,
2013-01-13 12:03:00,16.0,9.0,30.16,WNW,293,0.0,10.0,75,-99.99,,,-99.99,,2013-01-13 18:03:00,
2013-01-13 12:12:00,16.0,9.0,30.16,WNW,293,0.0,10.0,75,-99.99,,,-99.99,,2013-01-13 18:12:00,
2013-01-13 12:23:00,15.0,8.0,30.16,WNW,302,0.0,13.0,74,-99.99,,,-99.99,,2013-01-13 18:23:00,
2013-01-13 12:33:00,16.0,10.0,30.16,NW,321,0.0,14.0,76,-99.99,,,-99.99,,2013-01-13 18:33:00,
2013-01-13 12:43:00,16.0,10.0,30.16,NW,321,0.0,14.0,76,-99.99,,,-99.99,,2013-01-13 18:43:00,
2013-01-13 12:53:00,15.0,8.0,30.16,WNW,293,0.0,19.0,74,-99.99,,,-99.99,,2013-01-13 18:53:00,
2013-01-13 13:03:00,16.0,9.0,30.16,WNW,285,0.0,10.0,75,-99.99,,,-99.99,,2013-01-13 19:03:00,
2013-01-13 13:12:00,16.0,9.0,30.16,WNW,285,0.0,10.0,75,-99.99,,,-99.99,,2013-01-13 19:12:00,
2013-01-13 13:22:00,15.0,8.0,30.15,West,273,0.0,12.0,74,-99.99,,,-99.99,,2013-01-13 19:22:00,
2013-01-13 13:33:00,15.0,8.0,30.15,West,273,0.0,12.0,74,-99.99,,,-99.99,,2013-01-13 19:33:00,
2013-01-13 13:43:00,15.0,8.0,30.15,West,273,0.0,12.0,74,-99.99,,,-99.99,,2013-01-13 19:43:00,
2013-01-13 13:52:00,16.0,10.0,30.14,WNW,282,0.0,11.0,76,-99.99,,,-99.99,,2013-01-13 19:52:00,
2013-01-13 14:03:00,16.0,9.0,30.14,NNW,337,0.0,13.0,75,-99.99,,,-99.99,,2013-01-13 20:03:00,
2013-01-13 14:12:00,16.0,9.0,30.14,NNW,337,0.0,13.0,75,-99.99,,,-99.99,,2013-01-13 20:12:00,
2013-01-13 14:22:00,17.0,10.0,30.13,WNW,303,0.0,11.0,75,-99.99,,,-99.99,,2013-01-13 20:22:00,
2013-01-13 14:33:00,17.0,10.0,30.13,WNW,303,0.0,11.0,75,-99.99,,,-99.99,,2013-01-13 20:33:00,
2013-01-13 14:43:00,17.0,10.0,30.13,WNW,303,0.0,11.0,75,-99.99,,,-99.99,,2013-01-13 20:43:00,
2013-01-13 15:03:00,15.0,9.0,30.15,NNW,327,0.0,14.0,77,-99.99,,,-99.99,,2013-01-13 21:03:00,
2013-01-13 15:12:00,15.0,9.0,30.15,NNW,327,0.0,14.0,77,-99.99,,,-99.99,,2013-01-13 21:12:00,
2013-01-13 15:23:00,16.0,10.0,30.16,WSW,248,0.0,14.0,77,-99.99,,,-99.99,,2013-01-13 21:23:00,
2013-01-13 15:33:00,15.0,9.0,30.16,NW,312,0.0,15.0,77,-99.99,,,-99.99,,2013-01-13 21:33:00,
2013-01-13 15:43:00,15.0,9.0,30.16,NW,312,0.0,15.0,77,-99.99,,,-99.99,,2013-01-13 21:43:00,
2013-01-13 15:52:00,15.0,9.0,30.16,NW,324,0.0,15.0,77,-99.99,,,-99.99,,2013-01-13 21:52:00,
2013-01-13 16:02:00,15.0,9.0,30.18,WSW,256,0.0,11.0,78,-99.99,,,-99.99,,2013-01-13 22:02:00,
2013-01-13 16:12:00,15.0,9.0,30.18,WSW,256,0.0,11.0,78,-99.99,,,-99.99,,2013-01-13 22:12:00,
2013-01-13 16:22:00,15.0,9.0,30.18,NNW,343,0.0,16.0,78,-99.99,,,-99.99,,2013-01-13 22:22:00,
2013-01-13 16:33:00,14.0,9.0,30.19,NW,309,0.0,13.0,79,-99.99,,,-99.99,,2013-01-13 22:33:00,
2013-01-13 16:43:00,14.0,9.0,30.19,NW,309,0.0,13.0,79,-99.99,,,-99.99,,2013-01-13 22:43:00,
2013-01-13 16:52:00,14.0,9.0,30.20,West,272,0.0,11.0,80,-99.99,,,-99.99,,2013-01-13 22:52:00,
2013-01-13 17:02:00,14.0,9.0,30.21,West,272,0.0,17.0,81,-99.99,,,-99.99,,2013-01-13 23:02:00,
2013-01-13 17:12:00,14.0,9.0,30.21,West,272,0.0,17.0,81,-99.99,,,-99.99,,2013-01-13 23:12:00,
2013-01-13 17:22:00,13.0,8.0,30.22,NW,320,0.0,13.0,81,-99.99,,,-99.99,,2013-01-13 23:22:00,
2013-01-13 17:33:00,13.0,9.0,30.23,WNW,303,0.0,12.0,82,-99.99,,,-99.99,,2013-01-13 23:33:00,
2013-01-13 17:42:00,13.0,9.0,30.23,WNW,303,0.0,12.0,82,-99.99,,,-99.99,,2013-01-13 23:42:00,
2013-01-13 17:52:00,13.0,9.0,30.23,NW,324,0.0,13.0,82,-99.99,,,-99.99,,2013-01-13 23:52:00,
2013-01-13 18:03:00,13.0,9.0,30.23,NW,306,0.0,13.0,82,-99.99,,,-99.99,,2013-01-14 00:03:00,
2013-01-13 18:12:00,13.0,9.0,30.23,NW,306,0.0,13.0,82,-99.99,,,-99.99,,2013-01-14 00:12:00,
2013-01-13 18:22:00,13.0,9.0,30.24,NNW,347,0.0,14.0,83,-99.99,,,-99.99,,2013-01-14 00:22:00,
2013-01-13 18:33:00,13.0,9.0,30.24,NNW,328,0.0,12.0,83,-99.99,,,-99.99,,2013-01-14 00:33:00,
2013-01-13 18:43:00,13.0,9.0,30.24,NNW,328,0.0,12.0,83,-99.99,,,-99.99,,2013-01-14 00:43:00,
2013-01-13 18:52:00,13.0,9.0,30.24,NNW,328,0.0,12.0,83,-99.99,,,-99.99,,2013-01-14 00:52:00,
2013-01-13 19:03:00,13.0,9.0,30.25,WNW,297,0.0,9.0,84,-99.99,,,-99.99,,2013-01-14 01:03:00,
2013-01-13 19:12:00,13.0,9.0,30.25,WNW,297,0.0,9.0,84,-99.99,,,-99.99,,2013-01-14 01:12:00,
2013-01-13 19:22:00,14.0,10.0,30.25,NNW,327,0.0,9.0,84,-99.99,,,-99.99,,2013-01-14 01:22:00,
2013-01-13 19:32:00,14.0,10.0,30.26,West,279,0.0,14.0,84,-99.99,,,-99.99,,2013-01-14 01:32:00,
2013-01-13 19:42:00,14.0,10.0,30.26,West,279,0.0,14.0,84,-99.99,,,-99.99,,2013-01-14 01:42:00,
2013-01-13 19:52:00,14.0,10.0,30.27,West,262,0.0,12.0,84,-99.99,,,-99.99,,2013-01-14 01:52:00,
2013-01-13 20:02:00,13.0,9.0,30.26,West,269,0.0,9.0,85,-99.99,,,-99.99,,2013-01-14 02:02:00,
2013-01-13 20:12:00,13.0,9.0,30.26,West,269,0.0,9.0,85,-99.99,,,-99.99,,2013-01-14 02:12:00,
2013-01-13 20:22:00,13.0,9.0,30.26,West,269,0.0,9.0,85,-99.99,,,-99.99,,2013-01-14 02:22:00,
2013-01-13 20:32:00,13.0,10.0,30.27,West,276,0.0,6.0,86,-99.99,,,-99.99,,2013-01-14 02:32:00,
2013-01-13 20:43:00,13.0,10.0,30.27,West,276,0.0,6.0,86,-99.99,,,-99.99,,2013-01-14 02:43:00,
2013-01-13 20:53:00,13.0,10.0,30.27,WNW,300,0.0,9.0,86,-99.99,,,-99.99,,2013-01-14 02:53:00,
2013-01-13 21:02:00,13.0,10.0,30.28,WNW,303,0.0,5.0,87,-99.99,,,-99.99,,2013-01-14 03:02:00,
2013-01-13 21:12:00,13.0,10.0,30.28,WNW,303,0.0,5.0,87,-99.99,,,-99.99,,2013-01-14 03:12:00,
2013-01-13 21:22:00,13.0,10.0,30.28,WNW,303,0.0,5.0,87,-99.99,,,-99.99,,2013-01-14 03:22:00,
2013-01-13 21:32:00,13.0,10.0,30.27,NW,317,0.0,8.0,87,-99.99,,,-99.99,,2013-01-14 03:32:00,
2013-01-13 21:43:00,13.0,10.0,30.27,NW,317,0.0,8.0,87,-99.99,,,-99.99,,2013-01-14 03:43:00,
2013-01-13 21:53:00,12.0,9.0,30.27,NNW,336,0.0,11.0,88,-99.99,,,-99.99,,2013-01-14 03:53:00,
2013-01-13 22:02:00,12.0,9.0,30.28,NNW,341,0.0,7.0,88,-99.99,,,-99.99,,2013-01-14 04:02:00,
2013-01-13 22:12:00,12.0,9.0,30.28,NNW,341,0.0,7.0,88,-99.99,,,-99.99,,2013-01-14 04:12:00,
2013-01-13 22:22:00,12.0,9.0,30.28,NW,314,0.0,7.0,88,-99.99,,,-99.99,,2013-01-14 04:22:00,
2013-01-13 22:32:00,12.0,9.0,30.28,NW,314,0.0,7.0,88,-99.99,,,-99.99,,2013-01-14 04:32:00,
2013-01-13 22:42:00,12.0,9.0,30.28,NW,314,0.0,7.0,88,-99.99,,,-99.99,,2013-01-14 04:42:00,
2013-01-13 22:52:00,12.0,9.0,30.28,WNW,302,0.0,8.0,88,-99.99,,,-99.99,,2013-01-14 04:52:00,
2013-01-13 23:04:00,12.0,9.0,30.29,WNW,290,0.0,8.0,88,-99.99,,,-99.99,,2013-01-14 05:04:00,
2013-01-13 23:12:00,12.0,9.0,30.29,WNW,290,0.0,8.0,88,-99.99,,,-99.99,,2013-01-14 05:12:00,
2013-01-13 23:22:00,12.0,9.0,30.30,NW,323,0.0,8.0,88,-99.99,,,-99.99,,2013-01-14 05:22:00,
2013-01-13 23:32:00,12.0,9.0,30.30,NW,323,0.0,8.0,88,-99.99,,,-99.99,,2013-01-14 05:32:00,
2013-01-13 23:42:00,12.0,9.0,30.30,NW,323,0.0,8.0,88,-99.99,,,-99.99,,2013-01-14 05:42:00,
2013-01-13 23:52:00,12.0,9.0,30.31,WNW,299,0.0,7.0,87,-99.99,,,-99.99,,2013-01-14 05:52:00,